Time;durP1;ratioP1;P1;durP2;ratioP2;P2;SDS_P1;SDS_P2;PMS_P1;PMS_P2;Temp;Humidity;BMP_temperature;BMP_pressure;BME280_temperature;BME280_humidity;BME280_pressure;Samples;Min_cycle;Max_cycle;Signal;HPM_P1;HPM_P2
2023/05/10 00:01:04;;;;;;;5.57;3.57;;;;;;;13.89;97.51;101055.75;5044256;28;20217;-76
2023/05/10 00:03:29;;;;;;;7.13;3.80;;;;;;;13.85;99.21;101054.00;5046449;28;20225;-76
2023/05/10 00:05:54;;;;;;;5.00;4.03;;;;;;;13.84;98.51;101051.41;5033284;28;20250;-76
2023/05/10 00:08:20;;;;;;;5.90;3.40;;;;;;;13.85;97.94;101048.00;5043573;28;20189;-76
2023/05/10 00:10:45;;;;;;;6.37;4.00;;;;;;;13.80;99.57;101059.94;5047182;28;20304;-76
2023/05/10 00:13:11;;;;;;;6.03;3.93;;;;;;;13.78;99.76;101052.22;5039539;28;20193;-76
2023/05/10 00:15:36;;;;;;;7.53;4.20;;;;;;;13.78;100.00;101043.63;5010543;28;20302;-76
2023/05/10 00:18:02;;;;;;;6.77;4.03;;;;;;;13.75;100.00;101043.59;5042556;28;20215;-76
2023/05/10 00:20:27;;;;;;;6.20;4.00;;;;;;;13.69;100.00;101039.28;5043832;28;20217;-76
2023/05/10 00:22:53;;;;;;;6.10;3.73;;;;;;;13.70;100.00;101029.81;5043474;28;20195;-76
2023/05/10 00:25:18;;;;;;;4.97;4.00;;;;;;;13.72;100.00;101030.72;5039601;28;20186;-76
2023/05/10 00:27:44;;;;;;;4.47;3.70;;;;;;;13.70;100.00;101019.53;5013940;28;20190;-76
2023/05/10 00:30:10;;;;;;;6.57;3.80;;;;;;;13.68;100.00;101027.22;5006432;28;20607;-76
2023/05/10 00:32:35;;;;;;;4.70;3.47;;;;;;;13.64;100.00;101025.50;5042991;28;20190;-76
2023/05/10 00:35:01;;;;;;;6.03;4.27;;;;;;;13.66;100.00;101028.06;5046906;28;20199;-76
2023/05/10 00:37:27;;;;;;;6.83;3.97;;;;;;;13.64;100.00;101024.63;5029249;28;20278;-76
2023/05/10 00:39:52;;;;;;;4.80;3.90;;;;;;;13.59;100.00;101023.72;5037666;28;20202;-76
2023/05/10 00:42:17;;;;;;;4.63;3.50;;;;;;;13.60;100.00;101021.16;5021489;28;20221;-76
2023/05/10 00:44:43;;;;;;;6.23;3.70;;;;;;;13.53;100.00;101019.38;5035402;28;20878;-76
2023/05/10 00:47:09;;;;;;;5.67;4.20;;;;;;;13.51;100.00;101022.78;5041291;28;20217;-76
2023/05/10 00:49:36;;;;;;;4.60;4.17;;;;;;;13.47;100.00;101024.47;5029380;28;20336;-76
2023/05/10 00:52:02;;;;;;;5.77;3.67;;;;;;;13.50;100.00;101013.34;5042879;28;20186;-75
2023/05/10 00:54:28;;;;;;;9.27;3.90;;;;;;;13.47;100.00;101019.31;5015859;28;20198;-76
2023/05/10 00:56:54;;;;;;;5.67;3.80;;;;;;;13.49;100.00;101011.63;5014241;28;20240;-76
2023/05/10 00:59:21;;;;;;;6.03;4.20;;;;;;;13.43;100.00;101008.97;5021628;28;20205;-76
2023/05/10 01:01:46;;;;;;;7.23;4.10;;;;;;;13.40;100.00;101011.53;5021388;28;20601;-76
2023/05/10 01:04:13;;;;;;;8.37;4.30;;;;;;;13.33;100.00;101014.84;5045492;28;20220;-76
2023/05/10 01:06:42;;;;;;;5.37;3.87;;;;;;;13.36;100.00;101012.31;5018521;28;20225;-76
2023/05/10 01:09:08;;;;;;;5.30;4.00;;;;;;;13.37;100.00;101011.47;5022004;28;20256;-76
2023/05/10 01:11:38;;;;;;;5.10;3.83;;;;;;;13.31;100.00;101007.13;5022068;28;20194;-76
2023/05/10 01:14:04;;;;;;;6.07;4.07;;;;;;;13.31;100.00;101007.13;5023284;28;20280;-75
2023/05/10 01:16:36;;;;;;;5.00;4.03;;;;;;;13.27;100.00;101010.53;5038153;28;20209;-76
2023/05/10 01:19:03;;;;;;;4.47;3.70;;;;;;;13.25;100.00;100998.50;5021222;28;20305;-76
2023/05/10 01:21:41;;;;;;;4.23;3.83;;;;;;;13.20;100.00;101003.56;5018856;28;20213;-76
2023/05/10 01:24:19;;;;;;;5.13;3.67;;;;;;;13.21;100.00;100999.31;5019503;28;20813;-76
2023/05/10 01:27:01;;;;;;;7.47;4.00;;;;;;;13.16;100.00;101013.81;5026060;28;20216;-76
2023/05/10 01:29:45;;;;;;;5.73;4.10;;;;;;;13.16;100.00;101017.25;5040959;28;20277;-76
2023/05/10 01:32:31;;;;;;;4.57;4.17;;;;;;;13.15;100.00;101018.09;5037285;28;20224;-76
2023/05/10 01:35:10;;;;;;;8.73;4.30;;;;;;;13.10;100.00;101027.47;5019170;28;20190;-76
2023/05/10 01:38:20;;;;;;;4.50;3.80;;;;;;;13.04;100.00;101037.69;5003598;28;20237;-76
2023/05/10 01:41:08;;;;;;;5.57;3.93;;;;;;;13.02;100.00;101029.06;4968449;28;20226;-76
2023/05/10 01:43:58;;;;;;;6.13;4.07;;;;;;;12.98;100.00;101029.03;5051682;28;20193;-76
2023/05/10 01:46:42;;;;;;;9.03;3.63;;;;;;;12.88;100.00;101031.44;5013371;28;20244;-75
2023/05/10 01:49:11;;;;;;;5.03;4.10;;;;;;;12.83;100.00;101027.06;5022346;28;20208;-76
2023/05/10 01:51:46;;;;;;;9.83;4.50;;;;;;;12.87;100.00;101016.00;5042321;28;20201;-76
2023/05/10 01:54:13;;;;;;;8.10;4.17;;;;;;;12.74;100.00;101025.25;5023691;28;20232;-76
2023/05/10 01:56:41;;;;;;;6.53;4.00;;;;;;;12.77;100.00;101020.13;5028967;28;20620;-76
2023/05/10 01:59:13;;;;;;;5.77;4.00;;;;;;;12.69;100.00;101026.03;5032333;28;20208;-76
2023/05/10 02:01:40;;;;;;;6.27;4.23;;;;;;;12.70;100.00;101020.91;5022726;28;20214;-76
2023/05/10 02:04:08;;;;;;;7.07;5.00;;;;;;;12.70;100.00;101014.91;5047529;28;20283;-76
2023/05/10 02:06:35;;;;;;;5.40;4.30;;;;;;;12.66;100.00;101019.16;5042000;28;20225;-76
2023/05/10 02:09:02;;;;;;;6.00;4.13;;;;;;;12.61;100.00;101027.63;5039059;28;20198;-76
2023/05/10 02:11:30;;;;;;;5.27;4.00;;;;;;;12.54;100.00;101030.97;5022088;28;20276;-76
2023/05/10 02:13:58;;;;;;;8.43;4.03;;;;;;;12.52;100.00;101027.50;5031204;28;20194;-77
2023/05/10 02:16:30;;;;;;;8.20;4.10;;;;;;;12.49;100.00;101033.44;5038634;28;20549;-75
2023/05/10 02:18:58;;;;;;;5.10;4.20;;;;;;;12.45;100.00;101026.53;5025912;28;20189;-77
2023/05/10 02:21:25;;;;;;;4.67;4.20;;;;;;;12.50;100.00;101019.75;5024175;28;20217;-75
2023/05/10 02:23:52;;;;;;;12.77;4.03;;;;;;;12.46;100.00;101018.00;5025761;28;20190;-76
2023/05/10 02:26:20;;;;;;;6.23;4.30;;;;;;;12.43;100.00;101017.97;5022436;28;20201;-77
2023/05/10 02:28:48;;;;;;;6.93;4.47;;;;;;;12.35;100.00;101014.41;5050611;28;20194;-76
2023/05/10 02:31:15;;;;;;;6.47;4.07;;;;;;;12.37;100.00;101017.00;5042456;28;20272;-76
2023/05/10 02:33:42;;;;;;;7.33;4.20;;;;;;;12.33;100.00;101026.38;5021089;28;20198;-78
2023/05/10 02:36:10;;;;;;;6.77;4.40;;;;;;;12.26;100.00;101018.56;5026883;28;20210;-76
2023/05/10 02:38:36;;;;;;;8.37;4.40;;;;;;;12.25;100.00;101004.84;5031784;28;20183;-75
2023/05/10 02:41:04;;;;;;;7.53;4.70;;;;;;;12.23;100.00;101013.38;5023337;28;20217;-76
2023/05/10 02:43:33;;;;;;;5.47;4.40;;;;;;;12.24;100.00;101013.41;5043888;28;20200;-76
2023/05/10 02:45:58;;;;;;;9.73;4.27;;;;;;;12.26;100.00;101008.28;5027321;28;20323;-76
2023/05/10 02:48:24;;;;;;;5.10;3.90;;;;;;;12.26;100.00;100998.84;5037354;28;20194;-76
2023/05/10 02:50:52;;;;;;;8.90;4.63;;;;;;;12.24;100.00;101002.25;5043860;28;20224;-76
2023/05/10 02:53:40;;;;;;;5.97;4.43;;;;;;;12.23;100.00;100993.69;5023915;28;20642;-76
2023/05/10 02:56:14;;;;;;;7.10;4.60;;;;;;;12.18;100.00;101004.72;5051184;28;20292;-76
2023/05/10 02:58:40;;;;;;;5.70;4.10;;;;;;;12.20;100.00;100995.34;5044393;28;20281;-75
2023/05/10 03:01:07;;;;;;;8.13;4.40;;;;;;;12.16;100.00;100991.88;5033171;28;20300;-76
2023/05/10 03:03:33;;;;;;;7.20;4.20;;;;;;;12.13;100.00;100999.50;5047652;28;20182;-78
2023/05/10 03:05:58;;;;;;;6.23;3.83;;;;;;;12.17;100.00;100992.75;5043881;28;20243;-76
2023/05/10 03:08:24;;;;;;;5.30;4.40;;;;;;;12.11;100.00;101000.31;5028930;28;20703;-78
2023/05/10 03:11:11;;;;;;;5.93;4.30;;;;;;;12.12;100.00;100997.78;5018910;28;20206;-76
2023/05/10 03:13:50;;;;;;;6.17;4.43;;;;;;;12.09;100.00;101004.59;5028296;28;20193;-76
2023/05/10 03:16:19;;;;;;;5.50;4.30;;;;;;;12.08;100.00;101005.44;5019906;28;20216;-76
2023/05/10 03:18:54;;;;;;;5.10;3.93;;;;;;;12.09;100.00;101007.16;5028476;28;20651;-78
2023/05/10 03:21:23;;;;;;;7.63;4.80;;;;;;;12.05;100.00;101013.94;5047070;28;20237;-76
2023/05/10 03:24:06;;;;;;;6.00;4.03;;;;;;;12.08;100.00;101003.72;5018455;28;20260;-76
2023/05/10 03:26:33;;;;;;;4.80;4.30;;;;;;;12.07;100.00;101001.16;5041632;28;20212;-77
2023/05/10 03:29:08;;;;;;;8.13;4.07;;;;;;;12.02;100.00;101010.44;5014999;28;20200;-76
2023/05/10 03:31:34;;;;;;;5.70;4.30;;;;;;;12.00;100.00;101002.75;5030369;28;20193;-76
2023/05/10 03:33:59;;;;;;;7.63;4.53;;;;;;;11.99;100.00;101006.13;5042187;28;20187;-77
2023/05/10 03:36:26;;;;;;;6.53;4.03;;;;;;;12.01;100.00;100998.47;5039375;28;20327;-77
2023/05/10 03:38:51;;;;;;;5.33;4.10;;;;;;;12.01;100.00;101003.59;5046943;28;20272;-76
2023/05/10 03:41:17;;;;;;;6.13;4.30;;;;;;;12.05;100.00;101005.38;5049344;28;20320;-77
2023/05/10 03:43:43;;;;;;;7.17;4.60;;;;;;;11.97;100.00;101012.97;5044700;28;20185;-76
2023/05/10 03:46:08;;;;;;;5.77;4.20;;;;;;;12.01;100.00;101006.16;5044358;28;20288;-75
2023/05/10 03:48:34;;;;;;;6.43;4.57;;;;;;;12.01;100.00;101011.28;5028852;28;20724;-76
2023/05/10 03:51:00;;;;;;;6.37;4.27;;;;;;;11.99;100.00;101012.97;5030916;28;20185;-78
2023/05/10 03:53:26;;;;;;;6.07;4.70;;;;;;;11.92;100.00;101008.56;5028606;28;20230;-78
2023/05/10 03:55:52;;;;;;;5.70;4.10;;;;;;;11.96;100.00;101011.22;5044668;28;20209;-77
2023/05/10 03:58:18;;;;;;;6.30;4.43;;;;;;;12.00;100.00;101004.44;5047295;28;20200;-77
2023/05/10 04:00:45;;;;;;;5.27;4.60;;;;;;;11.99;100.00;101007.84;5019578;28;20209;-77
2023/05/10 04:03:12;;;;;;;6.23;4.57;;;;;;;11.97;100.00;101006.94;5038407;28;20266;-77
2023/05/10 04:05:37;;;;;;;5.57;4.60;;;;;;;11.99;100.00;100998.44;5022707;28;20213;-77
2023/05/10 04:08:03;;;;;;;5.63;4.27;;;;;;;12.01;100.00;100994.19;5037860;28;20197;-77
2023/05/10 04:10:29;;;;;;;5.77;4.47;;;;;;;12.04;100.00;100999.41;5022115;28;20192;-77
2023/05/10 04:12:55;;;;;;;7.33;4.77;;;;;;;12.02;100.00;100997.63;5032290;28;20178;-77
2023/05/10 04:15:20;;;;;;;9.03;4.67;;;;;;;12.09;100.00;100990.06;5047508;28;20344;-77
2023/05/10 04:17:46;;;;;;;8.37;4.50;;;;;;;12.06;100.00;101005.41;5040904;28;20775;-77
2023/05/10 04:20:12;;;;;;;9.07;4.47;;;;;;;12.08;100.00;101006.28;5048307;28;20677;-77
2023/05/10 04:22:38;;;;;;;7.43;4.90;;;;;;;12.10;100.00;100994.34;5046522;28;20579;-77
2023/05/10 04:25:04;;;;;;;8.27;4.87;;;;;;;12.14;100.00;100991.00;5042643;28;20184;-78
2023/05/10 04:27:30;;;;;;;9.97;4.30;;;;;;;12.11;100.00;101000.31;5024730;28;20209;-77
2023/05/10 04:29:56;;;;;;;5.23;4.30;;;;;;;12.14;100.00;101001.25;5041830;28;20193;-77
2023/05/10 04:32:22;;;;;;;5.83;4.10;;;;;;;12.17;100.00;100990.19;5027469;28;20551;-77
2023/05/10 04:34:47;;;;;;;6.00;4.70;;;;;;;12.18;100.00;100987.63;5040809;28;20569;-76
2023/05/10 04:37:12;;;;;;;5.10;4.60;;;;;;;12.19;100.00;100998.75;5044276;28;20213;-77
2023/05/10 04:39:38;;;;;;;5.40;4.70;;;;;;;12.17;100.00;101003.00;5024001;28;20189;-77
2023/05/10 04:42:05;;;;;;;5.23;4.53;;;;;;;12.21;100.00;100995.38;5045917;28;20221;-77
2023/05/10 04:44:31;;;;;;;7.57;4.73;;;;;;;12.20;100.00;100991.06;5025350;28;20659;-77
2023/05/10 04:46:57;;;;;;;8.83;4.77;;;;;;;12.21;100.00;100995.38;5030449;28;20202;-76
2023/05/10 04:49:22;;;;;;;8.60;4.57;;;;;;;12.24;100.00;100998.00;5037490;28;20247;-77
2023/05/10 04:51:48;;;;;;;8.70;4.37;;;;;;;12.25;100.00;100997.13;5041036;28;20178;-76
2023/05/10 04:54:13;;;;;;;4.63;4.20;;;;;;;12.34;100.00;100993.84;5039318;28;20186;-77
2023/05/10 04:56:38;;;;;;;7.50;4.83;;;;;;;12.33;100.00;100982.72;5028365;28;20697;-77
2023/05/10 04:59:04;;;;;;;5.17;4.20;;;;;;;12.40;100.00;100993.94;5049540;28;20277;-77
2023/05/10 05:01:29;;;;;;;8.57;5.10;;;;;;;12.47;100.00;100981.22;5030731;28;20292;-76
2023/05/10 05:03:55;;;;;;;5.20;4.70;;;;;;;12.61;100.00;100979.69;5045920;28;20196;-77
2023/05/10 05:06:20;;;;;;;5.80;4.20;;;;;;;12.71;100.00;100962.66;5040801;28;20245;-76
2023/05/10 05:08:46;;;;;;;5.93;4.30;;;;;;;12.77;100.00;100962.75;5054913;28;20572;-76
2023/05/10 05:11:11;;;;;;;5.50;4.40;;;;;;;12.86;100.00;100950.03;5028703;28;20259;-77
2023/05/10 05:13:37;;;;;;;6.43;4.50;;;;;;;12.85;100.00;100959.44;5030851;28;20186;-76
2023/05/10 05:16:03;;;;;;;6.73;4.77;;;;;;;13.03;100.00;100963.94;5028324;28;20596;-77
2023/05/10 05:18:28;;;;;;;4.87;4.37;;;;;;;13.22;100.00;100927.28;5051560;28;20286;-77
2023/05/10 05:20:54;;;;;;;6.83;4.60;;;;;;;13.33;100.00;100919.69;5029681;28;20478;-77
2023/05/10 05:23:20;;;;;;;4.93;4.20;;;;;;;13.41;100.00;100907.78;5052034;28;20190;-76
2023/05/10 05:25:46;;;;;;;5.47;4.40;;;;;;;13.42;100.00;100897.50;5040465;28;20288;-75
2023/05/10 05:28:12;;;;;;;8.87;4.90;;;;;;;13.57;100.00;100883.88;5049319;28;20542;-77
2023/05/10 05:30:37;;;;;;;6.43;4.50;;;;;;;13.64;100.00;100875.38;5025434;28;20607;-76
2023/05/10 05:33:03;;;;;;;5.07;4.57;;;;;;;13.69;100.00;100861.69;5051529;28;20189;-76
2023/05/10 05:35:28;;;;;;;6.83;4.60;;;;;;;13.80;100.00;100854.91;5043787;28;20183;-76
2023/05/10 05:37:54;;;;;;;5.70;4.43;;;;;;;13.90;100.00;100848.94;5049956;28;20646;-76
2023/05/10 05:40:20;;;;;;;9.93;4.80;;;;;;;14.01;100.00;100860.19;5048164;28;20717;-76
2023/05/10 05:42:45;;;;;;;11.80;4.70;;;;;;;13.97;100.00;100843.00;5051535;28;20190;-76
2023/05/10 05:45:12;;;;;;;8.07;5.17;;;;;;;13.99;100.00;100841.28;5051246;28;20202;-76
2023/05/10 05:47:39;;;;;;;7.53;4.67;;;;;;;14.12;100.00;100839.63;5031607;28;20212;-76
2023/05/10 05:50:06;;;;;;;6.90;4.53;;;;;;;14.15;100.00;100843.09;5043230;28;20328;-76
2023/05/10 05:52:31;;;;;;;8.90;4.83;;;;;;;14.10;100.00;100862.81;5036436;28;20206;-76
2023/05/10 05:54:56;;;;;;;8.20;4.93;;;;;;;14.09;100.00;100853.34;5050247;28;20224;-76
2023/05/10 05:57:22;;;;;;;9.33;5.47;;;;;;;14.07;100.00;100856.78;5032648;28;20313;-76
2023/05/10 05:59:48;;;;;;;13.93;4.67;;;;;;;14.18;100.00;100861.13;5034541;28;20662;-77
2023/05/10 06:02:13;;;;;;;9.20;5.00;;;;;;;14.26;100.00;100846.59;5024185;28;20218;-76
2023/05/10 06:04:39;;;;;;;5.37;4.53;;;;;;;14.23;100.00;100850.88;5039844;28;20277;-76
2023/05/10 06:07:04;;;;;;;4.73;4.33;;;;;;;14.50;100.00;100841.53;5033221;28;20297;-76
2023/05/10 06:09:30;;;;;;;10.23;4.80;;;;;;;14.77;100.00;100820.13;5049278;28;20712;-76
2023/05/10 06:11:56;;;;;;;6.17;4.43;;;;;;;14.87;100.00;100809.84;5038850;28;20185;-76
2023/05/10 06:14:21;;;;;;;6.47;4.47;;;;;;;14.94;100.00;100810.72;5041673;28;20781;-77
2023/05/10 06:16:47;;;;;;;5.67;4.50;;;;;;;15.10;100.00;100807.31;5049434;28;20202;-76
2023/05/10 06:19:12;;;;;;;10.13;4.90;;;;;;;15.30;100.00;100809.03;5049431;28;20229;-77
2023/05/10 06:21:38;;;;;;;5.00;4.50;;;;;;;15.18;100.00;100790.97;5050464;28;20566;-77
2023/05/10 06:24:05;;;;;;;8.87;4.70;;;;;;;15.29;100.00;100781.47;5026120;28;20228;-77
2023/05/10 06:26:30;;;;;;;7.47;4.23;;;;;;;15.26;100.00;100807.31;5030045;28;20201;-76
2023/05/10 06:28:56;;;;;;;7.47;5.00;;;;;;;15.28;100.00;100800.41;5042842;28;20186;-76
2023/05/10 06:31:21;;;;;;;7.13;4.73;;;;;;;15.43;100.00;100778.94;5037670;28;20190;-78
2023/05/10 06:33:47;;;;;;;10.33;4.53;;;;;;;15.64;100.00;100782.34;5041142;28;20190;-77
2023/05/10 06:36:13;;;;;;;7.37;4.97;;;;;;;15.83;99.22;100767.63;5041607;28;20659;-77
2023/05/10 06:38:39;;;;;;;5.57;4.80;;;;;;;15.79;98.42;100753.88;5049199;28;20189;-77
2023/05/10 06:41:05;;;;;;;12.37;4.80;;;;;;;15.99;92.81;100728.88;5042300;28;20279;-77
2023/05/10 06:43:31;;;;;;;6.97;4.77;;;;;;;15.81;95.47;100741.84;5039312;28;20183;-76
2023/05/10 06:45:56;;;;;;;9.40;4.57;;;;;;;15.74;95.87;100744.47;5042885;28;20205;-77
2023/05/10 06:48:21;;;;;;;5.30;4.43;;;;;;;15.51;96.41;100751.41;5050159;28;20794;-76
2023/05/10 06:50:47;;;;;;;4.90;4.40;;;;;;;15.76;97.70;100768.53;5029902;28;20304;-76
2023/05/10 06:53:13;;;;;;;6.77;4.60;;;;;;;15.70;92.01;100735.84;5040554;28;20189;-77
2023/05/10 06:55:39;;;;;;;4.60;3.93;;;;;;;15.83;94.15;100739.22;5026521;28;20230;-76
2023/05/10 06:58:04;;;;;;;6.20;4.40;;;;;;;16.06;91.14;100727.97;5016313;28;20217;-76
2023/05/10 07:00:30;;;;;;;7.73;4.13;;;;;;;16.18;90.81;100712.41;5049157;28;20675;-77
2023/05/10 07:02:55;;;;;;;5.70;4.30;;;;;;;16.07;86.99;100700.41;5036176;28;20194;-76
2023/05/10 07:05:21;;;;;;;8.83;4.50;;;;;;;16.25;85.09;100693.41;5048712;28;20281;-77
2023/05/10 07:07:47;;;;;;;4.37;3.97;;;;;;;16.32;86.36;100705.44;5047852;28;20235;-76
2023/05/10 07:10:13;;;;;;;4.97;3.93;;;;;;;16.79;83.51;100679.25;5042116;28;20218;-77
2023/05/10 07:12:38;;;;;;;5.37;4.60;;;;;;;16.75;81.38;100674.97;5038498;28;20593;-77
2023/05/10 07:15:05;;;;;;;5.57;4.00;;;;;;;16.63;80.64;100668.16;5041496;28;20197;-77
2023/05/10 07:17:30;;;;;;;4.53;3.93;;;;;;;16.58;81.56;100672.50;5023037;28;20199;-77
2023/05/10 07:19:56;;;;;;;5.80;4.60;;;;;;;16.61;86.09;100698.38;5036430;28;20862;-77
2023/05/10 07:22:21;;;;;;;6.90;4.60;;;;;;;16.63;82.24;100690.59;5029011;28;20707;-76
2023/05/10 07:24:46;;;;;;;5.57;4.40;;;;;;;16.75;81.43;100681.00;5036120;28;20216;-77
2023/05/10 07:27:12;;;;;;;4.37;3.97;;;;;;;16.96;80.41;100674.78;5049405;28;20681;-76
2023/05/10 07:29:38;;;;;;;8.70;4.67;;;;;;;16.98;82.23;100673.03;5020366;28;20677;-77
2023/05/10 07:32:04;;;;;;;5.47;4.27;;;;;;;16.80;78.36;100655.13;5041633;28;20268;-76
2023/05/10 07:34:31;;;;;;;8.53;4.47;;;;;;;16.95;79.02;100668.75;5047402;28;20193;-76
2023/05/10 07:37:00;;;;;;;5.17;4.33;;;;;;;16.70;83.81;100684.50;5047377;28;20209;-76
2023/05/10 07:39:27;;;;;;;5.20;4.37;;;;;;;17.06;81.82;100685.06;5046683;28;20701;-76
2023/05/10 07:41:52;;;;;;;4.90;3.87;;;;;;;17.12;83.16;100681.53;5041426;28;20623;-77
2023/05/10 07:44:20;;;;;;;5.60;4.43;;;;;;;16.88;85.43;100700.72;5047220;28;20197;-76
2023/05/10 07:46:47;;;;;;;7.93;4.90;;;;;;;17.14;84.19;100710.84;5052204;28;20619;-76
2023/05/10 07:49:12;;;;;;;6.47;4.67;;;;;;;17.08;79.43;100682.44;5031616;28;20190;-76
2023/05/10 07:51:38;;;;;;;4.80;4.27;;;;;;;16.80;78.68;100662.88;5046663;28;20542;-77
2023/05/10 07:54:03;;;;;;;7.57;4.50;;;;;;;16.86;78.71;100663.66;5041816;28;20260;-77
2023/05/10 07:56:31;;;;;;;8.87;3.97;;;;;;;16.69;80.04;100680.19;5047555;28;20214;-77
2023/05/10 07:59:01;;;;;;;5.33;4.40;;;;;;;16.73;84.10;100700.88;5048852;28;20189;-78
2023/05/10 08:01:29;;;;;;;7.50;4.60;;;;;;;16.95;84.73;100710.13;5044762;28;20209;-77
2023/05/10 08:03:55;;;;;;;7.33;4.70;;;;;;;16.92;79.05;100688.63;5041779;28;21174;-76
2023/05/10 08:06:20;;;;;;;6.03;3.87;;;;;;;16.67;83.68;100711.22;5022396;28;20360;-78
2023/05/10 08:08:50;;;;;;;5.33;4.80;;;;;;;16.84;83.66;100711.97;5023553;28;20196;-76
2023/05/10 08:11:20;;;;;;;5.67;4.57;;;;;;;16.92;84.04;100715.38;5040470;28;20185;-77
2023/05/10 08:13:46;;;;;;;6.13;4.20;;;;;;;17.11;82.28;100701.38;5023872;28;20549;-78
2023/05/10 08:16:11;;;;;;;6.37;4.47;;;;;;;17.15;81.32;100700.50;5042692;28;20221;-78
2023/05/10 08:18:38;;;;;;;7.90;4.40;;;;;;;17.23;82.99;100703.00;5047973;28;20202;-78
2023/05/10 08:21:03;;;;;;;5.33;4.40;;;;;;;17.27;80.17;100709.88;5048585;28;20225;-78
2023/05/10 08:23:29;;;;;;;7.13;4.33;;;;;;;17.28;82.02;100699.50;5016063;28;20197;-78
2023/05/10 08:25:54;;;;;;;6.60;5.00;;;;;;;17.26;85.54;100718.47;5054721;28;20213;-78
2023/05/10 08:28:20;;;;;;;5.47;4.33;;;;;;;17.32;77.44;100683.03;5048248;28;20215;-77
2023/05/10 08:30:45;;;;;;;5.13;4.43;;;;;;;17.43;78.09;100690.72;5022492;28;20197;-77
2023/05/10 08:33:10;;;;;;;4.50;4.10;;;;;;;17.51;77.82;100689.78;5028437;28;20186;-77
2023/05/10 08:35:36;;;;;;;6.33;4.63;;;;;;;17.45;80.04;100707.97;5051362;28;20201;-77
2023/05/10 08:38:02;;;;;;;4.83;4.27;;;;;;;17.44;79.49;100700.22;5045407;28;20620;-76
2023/05/10 08:40:27;;;;;;;6.53;4.83;;;;;;;17.50;78.29;100693.22;5031047;28;20193;-77
2023/05/10 08:43:05;;;;;;;4.60;4.20;;;;;;;17.66;79.06;100694.78;5027718;28;20182;-78
2023/05/10 08:45:33;;;;;;;7.90;4.80;;;;;;;17.47;78.34;100706.22;5035967;28;20740;-78
2023/05/10 08:48:02;;;;;;;6.20;4.80;;;;;;;17.43;80.42;100707.13;5043056;28;20221;-78
2023/05/10 08:50:29;;;;;;;5.33;4.80;;;;;;;17.21;83.29;100728.03;5043219;28;20181;-76
2023/05/10 08:52:58;;;;;;;5.73;4.40;;;;;;;17.48;83.20;100739.00;5042923;28;20628;-77
2023/05/10 08:55:24;;;;;;;5.93;4.87;;;;;;;17.34;84.19;100743.44;5037615;28;20209;-77
2023/05/10 08:57:50;;;;;;;6.00;4.67;;;;;;;17.15;86.96;100762.59;5049003;28;20182;-76
2023/05/10 09:00:17;;;;;;;6.00;4.97;;;;;;;17.25;89.35;100773.72;5022834;28;20186;-76
2023/05/10 09:02:44;;;;;;;5.70;4.73;;;;;;;17.06;89.27;100779.91;5051066;28;20221;-76
2023/05/10 09:05:10;;;;;;;7.43;4.93;;;;;;;17.07;93.12;100810.97;5045769;28;20259;-77
2023/05/10 09:07:36;;;;;;;9.23;4.57;;;;;;;17.11;94.32;100822.16;5038877;28;20225;-78
2023/05/10 09:10:02;;;;;;;6.13;5.27;;;;;;;16.83;99.98;100851.66;5040538;28;20193;-79
2023/05/10 09:12:28;;;;;;;6.03;4.53;;;;;;;16.72;98.77;100858.63;5018116;28;20186;-77
2023/05/10 09:14:54;;;;;;;10.03;5.20;;;;;;;16.73;100.00;100875.84;5045337;28;20193;-76
2023/05/10 09:17:23;;;;;;;7.60;5.27;;;;;;;16.68;100.00;100896.59;5042988;28;20222;-78
2023/05/10 09:19:48;;;;;;;8.83;5.40;;;;;;;16.51;100.00;100921.63;5026894;28;20288;-78
2023/05/10 09:22:14;;;;;;;6.23;5.30;;;;;;;16.45;100.00;100929.44;5043176;28;20309;-78
2023/05/10 09:24:44;;;;;;;5.60;5.00;;;;;;;16.53;100.00;100930.25;5035758;28;20193;-77
2023/05/10 09:27:10;;;;;;;5.60;5.10;;;;;;;16.53;100.00;100942.31;5046710;28;20214;-77
2023/05/10 09:29:41;;;;;;;5.50;5.00;;;;;;;16.56;100.00;100935.41;5017591;28;20195;-79
2023/05/10 09:32:06;;;;;;;7.90;5.60;;;;;;;16.51;100.00;100937.16;5024797;28;20194;-77
2023/05/10 09:34:34;;;;;;;6.03;4.80;;;;;;;16.51;100.00;100964.72;5045410;28;20967;-77
2023/05/10 09:37:02;;;;;;;10.37;5.00;;;;;;;16.66;100.00;100964.66;5022558;28;20214;-77
2023/05/10 09:39:35;;;;;;;6.97;4.67;;;;;;;16.60;100.00;100957.81;5045253;28;20204;-77
2023/05/10 09:42:09;;;;;;;7.47;5.40;;;;;;;16.50;100.00;100971.63;5037652;28;20212;-78
2023/05/10 09:44:36;;;;;;;6.93;5.60;;;;;;;16.27;100.00;100990.59;5041601;28;20205;-79
2023/05/10 09:47:02;;;;;;;6.60;5.70;;;;;;;16.22;100.00;100992.31;5051103;28;20205;-78
2023/05/10 09:49:28;;;;;;;6.33;5.60;;;;;;;16.37;100.00;100997.47;5022348;28;20194;-78
2023/05/10 09:52:04;;;;;;;5.20;4.70;;;;;;;16.38;100.00;100999.19;5022453;28;20179;-77
2023/05/10 09:54:30;;;;;;;6.43;5.47;;;;;;;16.34;100.00;101006.09;5031062;28;20685;-80
2023/05/10 09:56:56;;;;;;;6.83;5.33;;;;;;;16.39;100.00;101021.59;5028853;28;20240;-79
2023/05/10 09:59:25;;;;;;;8.00;5.70;;;;;;;16.27;100.00;101037.13;5050843;28;20272;-79
2023/05/10 10:01:51;;;;;;;7.33;5.23;;;;;;;16.16;100.00;101031.09;5043062;28;20252;-77
2023/05/10 10:04:17;;;;;;;7.77;5.70;;;;;;;16.15;100.00;101048.31;5037541;28;20198;-79
2023/05/10 10:06:42;;;;;;;6.37;5.77;;;;;;;16.14;100.00;101081.91;5049828;28;20210;-77
2023/05/10 10:09:09;;;;;;;9.33;6.07;;;;;;;16.04;100.00;101121.50;5043877;28;20241;-78
2023/05/10 10:11:35;;;;;;;8.50;6.63;;;;;;;15.86;100.00;101148.16;5022612;28;20213;-78
2023/05/10 10:14:01;;;;;;;10.93;6.43;;;;;;;15.80;100.00;101170.53;5021905;28;20239;-79
2023/05/10 10:16:29;;;;;;;9.00;6.07;;;;;;;15.80;100.00;101170.53;5040001;28;20235;-78
2023/05/10 10:18:55;;;;;;;8.80;6.37;;;;;;;15.61;100.00;101138.59;5020808;28;20197;-78
2023/05/10 10:21:21;;;;;;;9.37;6.60;;;;;;;15.42;100.00;101121.31;5021601;28;20206;-78
2023/05/10 10:23:47;;;;;;;7.33;6.40;;;;;;;15.55;100.00;101122.22;5020062;28;20198;-78
2023/05/10 10:26:13;;;;;;;8.03;7.23;;;;;;;15.48;100.00;101123.06;5053697;28;20221;-81
2023/05/10 10:29:07;;;;;;;8.17;7.37;;;;;;;15.16;100.00;101111.69;5033465;28;20190;-78
2023/05/10 10:31:35;;;;;;;9.47;6.80;;;;;;;15.26;100.00;101085.97;5031515;28;20308;-80
2023/05/10 10:34:06;;;;;;;8.67;7.77;;;;;;;15.09;100.00;101045.44;5037923;28;20205;-80
2023/05/10 10:36:33;;;;;;;8.87;7.97;;;;;;;14.85;100.00;101035.03;5048332;28;20232;-77
2023/05/10 10:39:01;;;;;;;11.30;8.50;;;;;;;14.76;100.00;101043.56;5043138;28;20223;-77
2023/05/10 10:41:28;;;;;;;9.13;8.03;;;;;;;14.65;100.00;101042.63;5042162;28;20934;-78
2023/05/10 10:44:24;;;;;;;10.23;9.13;;;;;;;14.74;100.00;101039.28;5023190;28;20396;-77
2023/05/10 10:47:00;;;;;;;12.23;9.57;;;;;;;14.64;100.00;101047.81;5025598;28;20213;-75
2023/05/10 10:49:27;;;;;;;10.67;9.57;;;;;;;14.56;100.00;101045.19;5040488;28;20189;-76
2023/05/10 10:52:20;;;;;;;11.83;9.67;;;;;;;14.39;100.00;101046.78;5028295;28;20182;-78
2023/05/10 10:55:18;;;;;;;10.67;9.33;;;;;;;14.45;100.00;101051.13;5049578;28;20244;-78
2023/05/10 10:57:55;;;;;;;10.80;9.23;;;;;;;14.39;100.00;101054.50;5021180;28;20630;-77
2023/05/10 11:00:22;;;;;;;9.77;8.77;;;;;;;14.34;100.00;101055.31;5045283;28;20185;-77
2023/05/10 11:02:51;;;;;;;13.83;9.67;;;;;;;14.45;100.00;101057.13;5025255;28;20225;-77
2023/05/10 11:05:40;;;;;;;11.43;9.93;;;;;;;14.35;100.00;101060.47;5023179;28;20205;-81
2023/05/10 11:08:11;;;;;;;11.13;10.03;;;;;;;14.46;100.00;101052.84;5040073;28;20821;-82
2023/05/10 11:10:51;;;;;;;10.00;9.00;;;;;;;14.43;100.00;101058.84;5037719;28;20197;-85
2023/05/10 11:13:28;;;;;;;12.17;10.23;;;;;;;14.55;100.00;101060.63;5046870;28;20193;-81
2023/05/10 11:16:16;;;;;;;11.37;10.17;;;;;;;14.56;100.00;101065.81;5058927;28;20568;-76
2023/05/10 11:19:07;;;;;;;11.57;10.27;;;;;;;14.58;100.00;101066.66;5031146;28;20214;-75
2023/05/10 11:21:34;;;;;;;10.40;9.30;;;;;;;14.61;100.00;101073.56;5058217;28;20197;-76
2023/05/10 11:24:05;;;;;;;11.17;10.07;;;;;;;14.60;100.00;101075.25;5052583;28;20515;-75